sensor_id;sensor_type;location;lat;lon;timestamp;P1;durP1;ratioP1;P2;durP2;ratioP2
56242;SDS011;42155;53.096;23.226;2023-02-01T00:00:29;20.10;;;8.43;;
56242;SDS011;42155;53.096;23.226;2023-02-01T00:02:30;20.40;;;9.23;;
56242;SDS011;42155;53.096;23.226;2023-02-01T00:04:30;19.10;;;9.07;;
56242;SDS011;42155;53.096;23.226;2023-02-01T00:06:30;20.95;;;9.20;;
56242;SDS011;42155;53.096;23.226;2023-02-01T00:08:31;17.90;;;8.45;;
56242;SDS011;42155;53.096;23.226;2023-02-01T00:10:31;24.75;;;10.02;;
56242;SDS011;42155;53.096;23.226;2023-02-01T00:12:31;21.67;;;9.20;;
56242;SDS011;42155;53.096;23.226;2023-02-01T00:14:32;24.33;;;8.43;;
56242;SDS011;42155;53.096;23.226;2023-02-01T00:16:33;21.73;;;8.73;;
56242;SDS011;42155;53.096;23.226;2023-02-01T00:18:33;18.10;;;8.70;;
56242;SDS011;42155;53.096;23.226;2023-02-01T00:20:34;16.55;;;8.23;;
56242;SDS011;42155;53.096;23.226;2023-02-01T00:22:34;19.67;;;7.40;;
56242;SDS011;42155;53.096;23.226;2023-02-01T00:24:34;15.23;;;7.93;;
56242;SDS011;42155;53.096;23.226;2023-02-01T00:26:36;15.48;;;7.45;;
56242;SDS011;42155;53.096;23.226;2023-02-01T00:28:41;15.13;;;7.82;;
56242;SDS011;42155;53.096;23.226;2023-02-01T00:30:42;16.73;;;8.27;;
56242;SDS011;42155;53.096;23.226;2023-02-01T00:32:42;17.23;;;7.20;;
56242;SDS011;42155;53.096;23.226;2023-02-01T00:34:42;13.80;;;7.07;;
56242;SDS011;42155;53.096;23.226;2023-02-01T00:36:43;13.38;;;6.50;;
56242;SDS011;42155;53.096;23.226;2023-02-01T00:38:43;18.67;;;7.93;;
56242;SDS011;42155;53.096;23.226;2023-02-01T00:40:44;15.43;;;7.65;;
56242;SDS011;42155;53.096;23.226;2023-02-01T00:42:44;13.10;;;7.38;;
56242;SDS011;42155;53.096;23.226;2023-02-01T00:44:44;14.27;;;6.93;;
56242;SDS011;42155;53.096;23.226;2023-02-01T00:46:45;11.82;;;6.68;;
56242;SDS011;42155;53.096;23.226;2023-02-01T00:48:45;12.10;;;6.30;;
56242;SDS011;42155;53.096;23.226;2023-02-01T00:50:45;13.70;;;6.95;;
56242;SDS011;42155;53.096;23.226;2023-02-01T00:52:46;14.70;;;7.20;;
56242;SDS011;42155;53.096;23.226;2023-02-01T00:54:46;9.95;;;6.13;;
56242;SDS011;42155;53.096;23.226;2023-02-01T00:56:46;12.23;;;6.88;;
56242;SDS011;42155;53.096;23.226;2023-02-01T00:58:47;12.48;;;6.43;;
56242;SDS011;42155;53.096;23.226;2023-02-01T01:00:47;10.15;;;5.88;;
56242;SDS011;42155;53.096;23.226;2023-02-01T01:02:48;10.18;;;5.32;;
56242;SDS011;42155;53.096;23.226;2023-02-01T01:04:48;10.48;;;5.50;;
56242;SDS011;42155;53.096;23.226;2023-02-01T01:06:48;11.57;;;5.93;;
56242;SDS011;42155;53.096;23.226;2023-02-01T01:08:50;11.82;;;5.85;;
56242;SDS011;42155;53.096;23.226;2023-02-01T01:10:52;10.90;;;5.28;;
56242;SDS011;42155;53.096;23.226;2023-02-01T01:12:52;10.43;;;5.45;;
56242;SDS011;42155;53.096;23.226;2023-02-01T01:14:53;10.82;;;5.78;;
56242;SDS011;42155;53.096;23.226;2023-02-01T01:16:53;10.43;;;5.60;;
56242;SDS011;42155;53.096;23.226;2023-02-01T01:18:53;8.27;;;5.05;;
56242;SDS011;42155;53.096;23.226;2023-02-01T01:20:55;9.60;;;5.53;;
56242;SDS011;42155;53.096;23.226;2023-02-01T01:22:55;8.52;;;4.82;;
56242;SDS011;42155;53.096;23.226;2023-02-01T01:24:55;9.60;;;4.97;;
56242;SDS011;42155;53.096;23.226;2023-02-01T01:26:56;9.20;;;4.97;;
56242;SDS011;42155;53.096;23.226;2023-02-01T01:28:57;7.80;;;4.82;;
56242;SDS011;42155;53.096;23.226;2023-02-01T01:30:58;8.48;;;4.85;;
56242;SDS011;42155;53.096;23.226;2023-02-01T01:32:58;9.75;;;5.22;;
56242;SDS011;42155;53.096;23.226;2023-02-01T01:34:58;8.60;;;5.15;;
56242;SDS011;42155;53.096;23.226;2023-02-01T01:36:59;8.50;;;4.80;;
56242;SDS011;42155;53.096;23.226;2023-02-01T01:38:59;7.65;;;5.00;;
56242;SDS011;42155;53.096;23.226;2023-02-01T01:40:59;9.50;;;5.38;;
56242;SDS011;42155;53.096;23.226;2023-02-01T01:43:00;8.38;;;5.20;;
56242;SDS011;42155;53.096;23.226;2023-02-01T01:45:02;8.52;;;5.05;;
56242;SDS011;42155;53.096;23.226;2023-02-01T01:47:06;8.48;;;5.20;;
56242;SDS011;42155;53.096;23.226;2023-02-01T01:51:20;9.02;;;5.50;;
56242;SDS011;42155;53.096;23.226;2023-02-01T01:53:26;10.65;;;5.13;;
56242;SDS011;42155;53.096;23.226;2023-02-01T01:55:31;10.02;;;6.15;;
56242;SDS011;42155;53.096;23.226;2023-02-01T01:57:36;8.27;;;5.32;;
56242;SDS011;42155;53.096;23.226;2023-02-01T01:59:40;11.93;;;6.95;;
56242;SDS011;42155;53.096;23.226;2023-02-01T02:01:46;11.50;;;6.20;;
56242;SDS011;42155;53.096;23.226;2023-02-01T02:03:47;11.60;;;6.40;;
56242;SDS011;42155;53.096;23.226;2023-02-01T02:05:48;10.52;;;5.93;;
56242;SDS011;42155;53.096;23.226;2023-02-01T02:07:50;10.85;;;6.80;;
56242;SDS011;42155;53.096;23.226;2023-02-01T02:09:53;11.55;;;6.50;;
56242;SDS011;42155;53.096;23.226;2023-02-01T02:11:54;11.27;;;6.78;;
56242;SDS011;42155;53.096;23.226;2023-02-01T02:13:55;13.30;;;6.68;;
56242;SDS011;42155;53.096;23.226;2023-02-01T02:18:26;11.80;;;6.13;;
56242;SDS011;42155;53.096;23.226;2023-02-01T02:20:40;15.60;;;7.55;;
56242;SDS011;42155;53.096;23.226;2023-02-01T02:32:37;13.23;;;6.63;;
56242;SDS011;42155;53.096;23.226;2023-02-01T02:34:57;12.40;;;6.60;;
56242;SDS011;42155;53.096;23.226;2023-02-01T02:45:54;12.52;;;6.80;;
56242;SDS011;42155;53.096;23.226;2023-02-01T02:52:17;11.32;;;6.72;;
56242;SDS011;42155;53.096;23.226;2023-02-01T02:54:21;11.00;;;6.85;;
56242;SDS011;42155;53.096;23.226;2023-02-01T02:56:25;12.05;;;6.97;;
56242;SDS011;42155;53.096;23.226;2023-02-01T02:58:27;14.00;;;7.35;;
56242;SDS011;42155;53.096;23.226;2023-02-01T03:00:29;13.40;;;7.03;;
56242;SDS011;42155;53.096;23.226;2023-02-01T03:02:33;13.90;;;7.45;;
56242;SDS011;42155;53.096;23.226;2023-02-01T03:04:34;11.25;;;6.80;;
56242;SDS011;42155;53.096;23.226;2023-02-01T03:06:35;12.55;;;6.40;;
56242;SDS011;42155;53.096;23.226;2023-02-01T03:08:37;15.25;;;7.22;;
56242;SDS011;42155;53.096;23.226;2023-02-01T03:10:40;10.85;;;6.35;;
56242;SDS011;42155;53.096;23.226;2023-02-01T03:12:47;9.77;;;6.30;;
56242;SDS011;42155;53.096;23.226;2023-02-01T03:14:49;12.52;;;6.55;;
56242;SDS011;42155;53.096;23.226;2023-02-01T03:16:54;13.77;;;6.45;;
56242;SDS011;42155;53.096;23.226;2023-02-01T03:21:10;8.73;;;5.05;;
56242;SDS011;42155;53.096;23.226;2023-02-01T03:23:16;10.30;;;5.57;;
56242;SDS011;42155;53.096;23.226;2023-02-01T03:25:23;8.93;;;5.05;;
56242;SDS011;42155;53.096;23.226;2023-02-01T03:27:30;9.82;;;4.65;;
56242;SDS011;42155;53.096;23.226;2023-02-01T03:29:34;7.88;;;4.30;;
56242;SDS011;42155;53.096;23.226;2023-02-01T03:31:40;6.35;;;3.70;;
56242;SDS011;42155;53.096;23.226;2023-02-01T03:33:41;5.82;;;3.80;;
56242;SDS011;42155;53.096;23.226;2023-02-01T03:37:44;6.63;;;3.05;;
56242;SDS011;42155;53.096;23.226;2023-02-01T03:39:50;8.57;;;3.08;;
56242;SDS011;42155;53.096;23.226;2023-02-01T03:42:09;6.97;;;2.90;;
56242;SDS011;42155;53.096;23.226;2023-02-01T03:44:35;5.75;;;2.70;;
56242;SDS011;42155;53.096;23.226;2023-02-01T03:46:42;4.35;;;2.47;;
56242;SDS011;42155;53.096;23.226;2023-02-01T03:48:49;6.15;;;2.47;;
56242;SDS011;42155;53.096;23.226;2023-02-01T03:50:52;3.92;;;2.50;;
56242;SDS011;42155;53.096;23.226;2023-02-01T03:53:01;3.40;;;2.22;;
56242;SDS011;42155;53.096;23.226;2023-02-01T03:55:05;8.98;;;2.92;;
56242;SDS011;42155;53.096;23.226;2023-02-01T03:57:08;3.88;;;2.00;;
56242;SDS011;42155;53.096;23.226;2023-02-01T03:59:13;5.78;;;2.25;;
56242;SDS011;42155;53.096;23.226;2023-02-01T04:01:14;5.03;;;2.20;;
56242;SDS011;42155;53.096;23.226;2023-02-01T04:03:14;3.38;;;1.95;;
56242;SDS011;42155;53.096;23.226;2023-02-01T04:05:15;6.45;;;2.10;;
56242;SDS011;42155;53.096;23.226;2023-02-01T04:07:15;5.35;;;1.92;;
56242;SDS011;42155;53.096;23.226;2023-02-01T04:09:16;4.90;;;1.88;;
56242;SDS011;42155;53.096;23.226;2023-02-01T04:11:16;5.70;;;1.90;;
56242;SDS011;42155;53.096;23.226;2023-02-01T04:13:17;7.68;;;1.75;;
56242;SDS011;42155;53.096;23.226;2023-02-01T04:15:18;11.13;;;2.30;;
56242;SDS011;42155;53.096;23.226;2023-02-01T04:17:18;5.47;;;1.83;;
56242;SDS011;42155;53.096;23.226;2023-02-01T04:19:18;6.18;;;1.85;;
56242;SDS011;42155;53.096;23.226;2023-02-01T04:21:19;7.03;;;1.80;;
56242;SDS011;42155;53.096;23.226;2023-02-01T04:23:19;6.68;;;2.00;;
56242;SDS011;42155;53.096;23.226;2023-02-01T04:25:19;6.80;;;2.00;;
56242;SDS011;42155;53.096;23.226;2023-02-01T04:27:20;5.47;;;1.70;;
56242;SDS011;42155;53.096;23.226;2023-02-01T04:29:20;10.48;;;2.15;;
56242;SDS011;42155;53.096;23.226;2023-02-01T04:31:20;4.25;;;1.58;;
56242;SDS011;42155;53.096;23.226;2023-02-01T04:33:21;5.22;;;1.67;;
56242;SDS011;42155;53.096;23.226;2023-02-01T04:35:21;6.97;;;1.70;;
56242;SDS011;42155;53.096;23.226;2023-02-01T04:37:22;5.90;;;1.98;;
56242;SDS011;42155;53.096;23.226;2023-02-01T04:39:22;5.18;;;1.90;;
56242;SDS011;42155;53.096;23.226;2023-02-01T04:41:22;5.35;;;1.67;;
56242;SDS011;42155;53.096;23.226;2023-02-01T04:43:23;9.95;;;2.10;;
56242;SDS011;42155;53.096;23.226;2023-02-01T04:45:23;7.82;;;2.25;;
56242;SDS011;42155;53.096;23.226;2023-02-01T04:47:23;3.85;;;1.85;;
56242;SDS011;42155;53.096;23.226;2023-02-01T04:49:24;6.68;;;2.10;;
56242;SDS011;42155;53.096;23.226;2023-02-01T04:51:24;6.85;;;1.90;;
56242;SDS011;42155;53.096;23.226;2023-02-01T04:53:24;7.53;;;2.05;;
56242;SDS011;42155;53.096;23.226;2023-02-01T04:55:25;3.78;;;2.00;;
56242;SDS011;42155;53.096;23.226;2023-02-01T04:57:25;7.15;;;2.35;;
56242;SDS011;42155;53.096;23.226;2023-02-01T04:59:26;7.03;;;1.73;;
56242;SDS011;42155;53.096;23.226;2023-02-01T05:01:26;7.45;;;2.53;;
56242;SDS011;42155;53.096;23.226;2023-02-01T05:03:26;5.78;;;2.33;;
56242;SDS011;42155;53.096;23.226;2023-02-01T05:05:27;13.77;;;3.10;;
56242;SDS011;42155;53.096;23.226;2023-02-01T05:07:28;6.65;;;2.55;;
56242;SDS011;42155;53.096;23.226;2023-02-01T05:09:28;4.75;;;2.08;;
56242;SDS011;42155;53.096;23.226;2023-02-01T05:11:28;7.90;;;2.33;;
56242;SDS011;42155;53.096;23.226;2023-02-01T05:13:29;6.47;;;2.33;;
56242;SDS011;42155;53.096;23.226;2023-02-01T05:15:30;8.07;;;2.55;;
56242;SDS011;42155;53.096;23.226;2023-02-01T05:17:31;7.60;;;2.47;;
56242;SDS011;42155;53.096;23.226;2023-02-01T05:19:31;11.80;;;2.45;;
56242;SDS011;42155;53.096;23.226;2023-02-01T05:21:31;11.57;;;2.67;;
56242;SDS011;42155;53.096;23.226;2023-02-01T05:23:31;6.60;;;2.25;;
56242;SDS011;42155;53.096;23.226;2023-02-01T05:25:32;11.57;;;3.72;;
56242;SDS011;42155;53.096;23.226;2023-02-01T05:27:32;24.98;;;9.45;;
56242;SDS011;42155;53.096;23.226;2023-02-01T05:29:33;12.55;;;4.60;;
56242;SDS011;42155;53.096;23.226;2023-02-01T05:31:33;9.98;;;4.28;;
56242;SDS011;42155;53.096;23.226;2023-02-01T05:33:34;12.18;;;4.07;;
56242;SDS011;42155;53.096;23.226;2023-02-01T05:35:34;8.75;;;2.97;;
56242;SDS011;42155;53.096;23.226;2023-02-01T05:37:34;15.48;;;3.83;;
56242;SDS011;42155;53.096;23.226;2023-02-01T05:39:35;8.68;;;3.15;;
56242;SDS011;42155;53.096;23.226;2023-02-01T05:41:35;6.28;;;3.05;;
56242;SDS011;42155;53.096;23.226;2023-02-01T05:43:36;11.07;;;2.83;;
56242;SDS011;42155;53.096;23.226;2023-02-01T05:45:36;8.55;;;2.85;;
56242;SDS011;42155;53.096;23.226;2023-02-01T05:47:36;10.35;;;2.90;;
56242;SDS011;42155;53.096;23.226;2023-02-01T05:49:37;8.57;;;2.80;;
56242;SDS011;42155;53.096;23.226;2023-02-01T05:51:37;7.70;;;3.30;;
56242;SDS011;42155;53.096;23.226;2023-02-01T05:53:38;10.10;;;3.20;;
56242;SDS011;42155;53.096;23.226;2023-02-01T05:55:38;9.90;;;4.05;;
56242;SDS011;42155;53.096;23.226;2023-02-01T05:57:39;6.60;;;3.10;;
56242;SDS011;42155;53.096;23.226;2023-02-01T05:59:39;9.82;;;3.45;;
56242;SDS011;42155;53.096;23.226;2023-02-01T06:01:40;14.05;;;3.75;;
56242;SDS011;42155;53.096;23.226;2023-02-01T06:03:40;13.32;;;3.40;;
56242;SDS011;42155;53.096;23.226;2023-02-01T06:05:43;9.68;;;3.47;;
56242;SDS011;42155;53.096;23.226;2023-02-01T06:07:44;11.98;;;4.30;;
56242;SDS011;42155;53.096;23.226;2023-02-01T06:09:44;10.63;;;4.10;;
56242;SDS011;42155;53.096;23.226;2023-02-01T06:11:44;10.57;;;3.85;;
56242;SDS011;42155;53.096;23.226;2023-02-01T06:13:45;10.95;;;4.32;;
56242;SDS011;42155;53.096;23.226;2023-02-01T06:15:45;16.02;;;3.90;;
56242;SDS011;42155;53.096;23.226;2023-02-01T06:17:46;13.93;;;4.50;;
56242;SDS011;42155;53.096;23.226;2023-02-01T06:19:46;15.50;;;5.07;;
56242;SDS011;42155;53.096;23.226;2023-02-01T06:21:47;13.63;;;4.60;;
56242;SDS011;42155;53.096;23.226;2023-02-01T06:23:47;15.95;;;5.05;;
56242;SDS011;42155;53.096;23.226;2023-02-01T06:25:47;10.50;;;4.57;;
56242;SDS011;42155;53.096;23.226;2023-02-01T06:27:48;14.63;;;5.07;;
56242;SDS011;42155;53.096;23.226;2023-02-01T06:29:48;11.27;;;4.95;;
56242;SDS011;42155;53.096;23.226;2023-02-01T06:31:48;16.13;;;5.55;;
56242;SDS011;42155;53.096;23.226;2023-02-01T06:33:49;14.10;;;4.93;;
56242;SDS011;42155;53.096;23.226;2023-02-01T06:35:57;13.98;;;4.90;;
56242;SDS011;42155;53.096;23.226;2023-02-01T06:37:58;11.95;;;5.22;;
56242;SDS011;42155;53.096;23.226;2023-02-01T06:39:59;19.35;;;5.18;;
56242;SDS011;42155;53.096;23.226;2023-02-01T06:41:59;16.25;;;5.05;;
56242;SDS011;42155;53.096;23.226;2023-02-01T06:44:00;15.30;;;5.40;;
56242;SDS011;42155;53.096;23.226;2023-02-01T06:46:01;16.38;;;6.00;;
56242;SDS011;42155;53.096;23.226;2023-02-01T06:48:03;19.23;;;5.43;;
56242;SDS011;42155;53.096;23.226;2023-02-01T06:50:03;20.75;;;5.32;;
56242;SDS011;42155;53.096;23.226;2023-02-01T06:52:04;15.82;;;5.40;;
56242;SDS011;42155;53.096;23.226;2023-02-01T06:54:04;18.02;;;5.47;;
56242;SDS011;42155;53.096;23.226;2023-02-01T06:56:05;14.80;;;5.35;;
56242;SDS011;42155;53.096;23.226;2023-02-01T06:58:05;15.88;;;5.43;;
56242;SDS011;42155;53.096;23.226;2023-02-01T07:00:06;21.33;;;6.03;;
56242;SDS011;42155;53.096;23.226;2023-02-01T07:02:09;15.60;;;5.85;;
56242;SDS011;42155;53.096;23.226;2023-02-01T07:04:11;18.88;;;5.57;;
56242;SDS011;42155;53.096;23.226;2023-02-01T07:06:12;16.70;;;4.57;;
56242;SDS011;42155;53.096;23.226;2023-02-01T07:08:12;16.05;;;5.68;;
56242;SDS011;42155;53.096;23.226;2023-02-01T07:10:13;16.60;;;5.60;;
56242;SDS011;42155;53.096;23.226;2023-02-01T07:12:13;16.67;;;6.13;;
56242;SDS011;42155;53.096;23.226;2023-02-01T07:14:13;20.90;;;6.05;;
56242;SDS011;42155;53.096;23.226;2023-02-01T07:16:15;23.00;;;6.55;;
56242;SDS011;42155;53.096;23.226;2023-02-01T07:18:17;15.75;;;5.78;;
56242;SDS011;42155;53.096;23.226;2023-02-01T07:20:18;22.33;;;5.90;;
56242;SDS011;42155;53.096;23.226;2023-02-01T07:22:18;19.35;;;5.88;;
56242;SDS011;42155;53.096;23.226;2023-02-01T07:24:18;21.08;;;6.35;;
56242;SDS011;42155;53.096;23.226;2023-02-01T07:26:19;21.90;;;5.60;;
56242;SDS011;42155;53.096;23.226;2023-02-01T07:28:19;14.63;;;5.00;;
56242;SDS011;42155;53.096;23.226;2023-02-01T07:30:20;17.52;;;6.18;;
56242;SDS011;42155;53.096;23.226;2023-02-01T07:32:20;21.60;;;6.53;;
56242;SDS011;42155;53.096;23.226;2023-02-01T07:34:20;21.73;;;6.25;;
56242;SDS011;42155;53.096;23.226;2023-02-01T07:36:21;25.58;;;6.93;;
56242;SDS011;42155;53.096;23.226;2023-02-01T07:38:21;21.00;;;5.95;;
56242;SDS011;42155;53.096;23.226;2023-02-01T07:40:21;16.15;;;5.75;;
56242;SDS011;42155;53.096;23.226;2023-02-01T07:42:22;22.00;;;6.00;;
56242;SDS011;42155;53.096;23.226;2023-02-01T07:44:22;23.05;;;6.43;;
56242;SDS011;42155;53.096;23.226;2023-02-01T07:46:23;15.70;;;5.78;;
56242;SDS011;42155;53.096;23.226;2023-02-01T07:48:24;17.20;;;5.65;;
56242;SDS011;42155;53.096;23.226;2023-02-01T07:50:25;24.15;;;5.65;;
56242;SDS011;42155;53.096;23.226;2023-02-01T07:52:27;15.27;;;5.53;;
56242;SDS011;42155;53.096;23.226;2023-02-01T07:54:28;19.45;;;5.53;;
56242;SDS011;42155;53.096;23.226;2023-02-01T07:56:28;17.02;;;5.45;;
56242;SDS011;42155;53.096;23.226;2023-02-01T07:58:29;23.23;;;5.18;;
56242;SDS011;42155;53.096;23.226;2023-02-01T08:00:29;18.90;;;5.63;;
56242;SDS011;42155;53.096;23.226;2023-02-01T08:02:30;20.15;;;5.95;;
56242;SDS011;42155;53.096;23.226;2023-02-01T08:04:31;17.27;;;5.30;;
56242;SDS011;42155;53.096;23.226;2023-02-01T08:06:32;17.05;;;5.78;;
56242;SDS011;42155;53.096;23.226;2023-02-01T08:08:33;16.40;;;5.38;;
56242;SDS011;42155;53.096;23.226;2023-02-01T08:10:34;25.35;;;5.97;;
56242;SDS011;42155;53.096;23.226;2023-02-01T08:12:34;14.85;;;5.30;;
56242;SDS011;42155;53.096;23.226;2023-02-01T08:14:34;22.08;;;5.90;;
56242;SDS011;42155;53.096;23.226;2023-02-01T08:16:35;21.27;;;7.05;;
56242;SDS011;42155;53.096;23.226;2023-02-01T08:18:35;23.35;;;7.72;;
56242;SDS011;42155;53.096;23.226;2023-02-01T08:20:37;18.38;;;5.35;;
56242;SDS011;42155;53.096;23.226;2023-02-01T08:22:37;17.63;;;5.65;;
56242;SDS011;42155;53.096;23.226;2023-02-01T08:24:38;23.80;;;5.80;;
56242;SDS011;42155;53.096;23.226;2023-02-01T08:26:38;20.25;;;5.97;;
56242;SDS011;42155;53.096;23.226;2023-02-01T08:28:39;15.70;;;5.82;;
56242;SDS011;42155;53.096;23.226;2023-02-01T08:30:41;13.07;;;5.75;;
56242;SDS011;42155;53.096;23.226;2023-02-01T08:32:41;13.95;;;5.10;;
56242;SDS011;42155;53.096;23.226;2023-02-01T08:34:41;16.77;;;5.15;;
56242;SDS011;42155;53.096;23.226;2023-02-01T08:36:42;18.33;;;5.55;;
56242;SDS011;42155;53.096;23.226;2023-02-01T08:38:42;17.02;;;4.82;;
56242;SDS011;42155;53.096;23.226;2023-02-01T08:40:42;14.65;;;5.43;;
56242;SDS011;42155;53.096;23.226;2023-02-01T08:42:43;19.17;;;5.25;;
56242;SDS011;42155;53.096;23.226;2023-02-01T08:44:43;17.10;;;5.00;;
56242;SDS011;42155;53.096;23.226;2023-02-01T08:46:43;12.95;;;4.50;;
56242;SDS011;42155;53.096;23.226;2023-02-01T08:48:45;11.00;;;4.30;;
56242;SDS011;42155;53.096;23.226;2023-02-01T08:50:46;16.77;;;4.40;;
56242;SDS011;42155;53.096;23.226;2023-02-01T08:52:46;17.75;;;5.00;;
56242;SDS011;42155;53.096;23.226;2023-02-01T08:54:47;15.15;;;4.95;;
56242;SDS011;42155;53.096;23.226;2023-02-01T08:56:47;18.83;;;5.05;;
56242;SDS011;42155;53.096;23.226;2023-02-01T08:58:48;27.17;;;5.40;;
56242;SDS011;42155;53.096;23.226;2023-02-01T09:00:48;19.30;;;5.55;;
56242;SDS011;42155;53.096;23.226;2023-02-01T09:02:48;20.33;;;5.32;;
56242;SDS011;42155;53.096;23.226;2023-02-01T09:04:49;20.05;;;5.25;;
56242;SDS011;42155;53.096;23.226;2023-02-01T09:06:49;19.05;;;5.40;;
56242;SDS011;42155;53.096;23.226;2023-02-01T09:08:49;17.77;;;5.20;;
56242;SDS011;42155;53.096;23.226;2023-02-01T09:10:50;16.98;;;5.85;;
56242;SDS011;42155;53.096;23.226;2023-02-01T09:12:50;14.02;;;5.25;;
56242;SDS011;42155;53.096;23.226;2023-02-01T09:14:50;21.08;;;4.97;;
56242;SDS011;42155;53.096;23.226;2023-02-01T09:16:51;17.20;;;5.47;;
56242;SDS011;42155;53.096;23.226;2023-02-01T09:18:51;17.90;;;4.88;;
56242;SDS011;42155;53.096;23.226;2023-02-01T09:20:51;14.55;;;4.70;;
56242;SDS011;42155;53.096;23.226;2023-02-01T09:22:52;17.63;;;4.63;;
56242;SDS011;42155;53.096;23.226;2023-02-01T09:24:53;15.10;;;4.32;;
56242;SDS011;42155;53.096;23.226;2023-02-01T09:26:53;20.63;;;5.13;;
56242;SDS011;42155;53.096;23.226;2023-02-01T09:28:53;24.33;;;6.03;;
56242;SDS011;42155;53.096;23.226;2023-02-01T09:30:57;13.80;;;3.95;;
56242;SDS011;42155;53.096;23.226;2023-02-01T09:32:58;20.75;;;5.13;;
56242;SDS011;42155;53.096;23.226;2023-02-01T09:34:59;13.80;;;4.47;;
56242;SDS011;42155;53.096;23.226;2023-02-01T09:36:59;19.63;;;4.55;;
56242;SDS011;42155;53.096;23.226;2023-02-01T09:39:00;20.55;;;5.35;;
56242;SDS011;42155;53.096;23.226;2023-02-01T09:41:00;18.85;;;5.60;;
56242;SDS011;42155;53.096;23.226;2023-02-01T09:47:15;14.95;;;5.60;;
56242;SDS011;42155;53.096;23.226;2023-02-01T09:49:19;22.33;;;5.53;;
56242;SDS011;42155;53.096;23.226;2023-02-01T09:51:33;15.02;;;4.97;;
56242;SDS011;42155;53.096;23.226;2023-02-01T09:53:38;16.70;;;4.68;;
56242;SDS011;42155;53.096;23.226;2023-02-01T09:55:42;20.75;;;5.85;;
56242;SDS011;42155;53.096;23.226;2023-02-01T10:00:36;17.33;;;6.03;;
56242;SDS011;42155;53.096;23.226;2023-02-01T10:02:38;21.80;;;6.22;;
56242;SDS011;42155;53.096;23.226;2023-02-01T10:04:40;19.13;;;6.20;;
56242;SDS011;42155;53.096;23.226;2023-02-01T10:16:40;17.77;;;5.25;;
56242;SDS011;42155;53.096;23.226;2023-02-01T10:21:28;17.27;;;5.10;;
56242;SDS011;42155;53.096;23.226;2023-02-01T10:25:38;23.75;;;5.88;;
56242;SDS011;42155;53.096;23.226;2023-02-01T10:27:54;17.08;;;5.28;;
56242;SDS011;42155;53.096;23.226;2023-02-01T10:29:59;19.17;;;5.20;;
56242;SDS011;42155;53.096;23.226;2023-02-01T10:32:12;19.40;;;5.68;;
56242;SDS011;42155;53.096;23.226;2023-02-01T10:36:21;19.50;;;5.18;;
56242;SDS011;42155;53.096;23.226;2023-02-01T10:38:29;16.88;;;4.80;;
56242;SDS011;42155;53.096;23.226;2023-02-01T10:40:31;16.80;;;5.72;;
56242;SDS011;42155;53.096;23.226;2023-02-01T10:42:33;18.20;;;5.10;;
56242;SDS011;42155;53.096;23.226;2023-02-01T10:44:33;21.10;;;5.38;;
56242;SDS011;42155;53.096;23.226;2023-02-01T10:46:37;10.95;;;4.38;;
56242;SDS011;42155;53.096;23.226;2023-02-01T10:48:37;19.15;;;4.78;;
56242;SDS011;42155;53.096;23.226;2023-02-01T10:53:23;12.50;;;4.20;;
56242;SDS011;42155;53.096;23.226;2023-02-01T10:55:28;15.25;;;4.25;;
56242;SDS011;42155;53.096;23.226;2023-02-01T10:57:37;20.30;;;4.75;;
56242;SDS011;42155;53.096;23.226;2023-02-01T10:59:38;11.43;;;3.95;;
56242;SDS011;42155;53.096;23.226;2023-02-01T11:01:39;9.40;;;3.47;;
56242;SDS011;42155;53.096;23.226;2023-02-01T11:05:53;11.38;;;3.85;;
56242;SDS011;42155;53.096;23.226;2023-02-01T11:07:56;10.25;;;4.47;;
56242;SDS011;42155;53.096;23.226;2023-02-01T11:09:56;16.02;;;5.03;;
56242;SDS011;42155;53.096;23.226;2023-02-01T11:11:58;15.07;;;4.95;;
56242;SDS011;42155;53.096;23.226;2023-02-01T11:14:00;12.52;;;4.57;;
56242;SDS011;42155;53.096;23.226;2023-02-01T11:16:11;13.77;;;5.15;;
56242;SDS011;42155;53.096;23.226;2023-02-01T11:18:15;14.48;;;4.78;;
56242;SDS011;42155;53.096;23.226;2023-02-01T11:20:19;12.20;;;4.75;;
56242;SDS011;42155;53.096;23.226;2023-02-01T11:22:37;13.80;;;4.78;;
56242;SDS011;42155;53.096;23.226;2023-02-01T11:24:45;15.38;;;5.53;;
56242;SDS011;42155;53.096;23.226;2023-02-01T11:26:46;16.17;;;4.70;;
56242;SDS011;42155;53.096;23.226;2023-02-01T11:28:50;16.80;;;4.97;;
56242;SDS011;42155;53.096;23.226;2023-02-01T11:30:54;18.92;;;5.30;;
56242;SDS011;42155;53.096;23.226;2023-02-01T11:32:57;21.67;;;6.22;;
56242;SDS011;42155;53.096;23.226;2023-02-01T11:35:01;13.27;;;5.13;;
56242;SDS011;42155;53.096;23.226;2023-02-01T11:37:04;14.60;;;4.97;;
56242;SDS011;42155;53.096;23.226;2023-02-01T11:41:17;17.67;;;5.72;;
56242;SDS011;42155;53.096;23.226;2023-02-01T11:43:24;16.27;;;5.20;;
56242;SDS011;42155;53.096;23.226;2023-02-01T11:45:29;13.13;;;5.13;;
56242;SDS011;42155;53.096;23.226;2023-02-01T11:47:38;19.90;;;6.05;;
56242;SDS011;42155;53.096;23.226;2023-02-01T11:49:39;17.38;;;5.32;;
56242;SDS011;42155;53.096;23.226;2023-02-01T11:54:01;17.50;;;5.68;;
56242;SDS011;42155;53.096;23.226;2023-02-01T11:56:11;15.93;;;5.45;;
56242;SDS011;42155;53.096;23.226;2023-02-01T11:58:21;18.70;;;5.28;;
56242;SDS011;42155;53.096;23.226;2023-02-01T12:00:29;18.88;;;5.72;;
56242;SDS011;42155;53.096;23.226;2023-02-01T12:07:28;22.23;;;6.28;;
56242;SDS011;42155;53.096;23.226;2023-02-01T12:09:45;17.02;;;5.32;;
56242;SDS011;42155;53.096;23.226;2023-02-01T12:12:02;10.20;;;4.90;;
56242;SDS011;42155;53.096;23.226;2023-02-01T12:16:33;14.30;;;4.30;;
56242;SDS011;42155;53.096;23.226;2023-02-01T12:20:56;21.48;;;5.30;;
56242;SDS011;42155;53.096;23.226;2023-02-01T12:23:21;19.67;;;5.07;;
56242;SDS011;42155;53.096;23.226;2023-02-01T12:25:57;14.73;;;4.47;;
56242;SDS011;42155;53.096;23.226;2023-02-01T12:28:22;13.18;;;3.53;;
56242;SDS011;42155;53.096;23.226;2023-02-01T12:30:45;14.98;;;4.28;;
56242;SDS011;42155;53.096;23.226;2023-02-01T12:33:01;11.25;;;3.78;;
56242;SDS011;42155;53.096;23.226;2023-02-01T12:42:36;13.88;;;4.22;;
56242;SDS011;42155;53.096;23.226;2023-02-01T12:44:43;9.93;;;4.10;;
56242;SDS011;42155;53.096;23.226;2023-02-01T12:46:52;14.30;;;3.75;;
56242;SDS011;42155;53.096;23.226;2023-02-01T12:48:57;11.27;;;3.53;;
56242;SDS011;42155;53.096;23.226;2023-02-01T12:51:08;11.88;;;3.92;;
56242;SDS011;42155;53.096;23.226;2023-02-01T12:55:42;14.50;;;4.70;;
56242;SDS011;42155;53.096;23.226;2023-02-01T13:00:27;17.92;;;4.03;;
56242;SDS011;42155;53.096;23.226;2023-02-01T13:05:19;18.77;;;4.60;;
56242;SDS011;42155;53.096;23.226;2023-02-01T13:07:23;9.82;;;4.30;;
56242;SDS011;42155;53.096;23.226;2023-02-01T13:11:45;10.43;;;3.72;;
56242;SDS011;42155;53.096;23.226;2023-02-01T13:13:53;13.20;;;4.10;;
56242;SDS011;42155;53.096;23.226;2023-02-01T13:18:14;11.63;;;4.03;;
56242;SDS011;42155;53.096;23.226;2023-02-01T13:20:30;12.48;;;4.20;;
56242;SDS011;42155;53.096;23.226;2023-02-01T13:22:40;12.35;;;4.43;;
56242;SDS011;42155;53.096;23.226;2023-02-01T13:25:18;13.30;;;4.35;;
56242;SDS011;42155;53.096;23.226;2023-02-01T13:27:29;11.20;;;3.80;;
56242;SDS011;42155;53.096;23.226;2023-02-01T13:29:31;12.98;;;4.18;;
56242;SDS011;42155;53.096;23.226;2023-02-01T13:38:30;13.48;;;4.18;;
56242;SDS011;42155;53.096;23.226;2023-02-01T13:43:19;18.10;;;5.55;;